createdAt,value
2019-03-28T00:00:08.059Z,21.77
2019-03-28T00:01:07.094Z,21.80
2019-03-28T00:02:07.340Z,21.76
2019-03-28T00:03:08.269Z,21.76
2019-03-28T00:04:07.011Z,21.82
2019-03-28T00:05:06.824Z,21.79
2019-03-28T00:06:06.912Z,21.83
2019-03-28T00:07:06.786Z,21.76
2019-03-28T00:08:08.870Z,21.88
2019-03-28T00:09:07.827Z,21.76
2019-03-28T00:10:07.234Z,21.77
2019-03-28T00:11:06.745Z,21.82
2019-03-28T00:12:06.742Z,21.73
2019-03-28T00:13:06.703Z,21.72
2019-03-28T00:14:06.701Z,21.76
2019-03-28T00:15:09.666Z,21.75
2019-03-28T00:16:06.911Z,21.76
2019-03-28T00:17:06.656Z,21.79
2019-03-28T00:18:07.017Z,21.76
2019-03-28T00:19:07.413Z,21.79
2019-03-28T00:20:06.870Z,21.75
2019-03-28T00:21:07.021Z,21.79
2019-03-28T00:22:06.757Z,21.73
2019-03-28T00:23:07.265Z,21.76
2019-03-28T00:24:06.588Z,21.76
2019-03-28T00:25:06.605Z,21.76
2019-03-28T00:26:06.775Z,21.75
2019-03-28T00:27:06.928Z,21.75
2019-03-28T00:28:08.012Z,21.82
2019-03-28T00:29:06.749Z,21.76
2019-03-28T00:30:06.814Z,21.73
2019-03-28T00:31:06.700Z,21.73
2019-03-28T00:32:08.292Z,21.73
2019-03-28T00:33:07.599Z,21.73
2019-03-28T00:34:06.987Z,21.77
2019-03-28T00:35:06.465Z,21.82
2019-03-28T00:36:06.625Z,21.83
2019-03-28T00:37:07.745Z,21.77
2019-03-28T00:38:06.497Z,21.77
2019-03-28T00:39:06.704Z,21.79
2019-03-28T00:40:08.965Z,21.72
2019-03-28T00:41:06.790Z,21.80
2019-03-28T00:42:06.381Z,21.76
2019-03-28T00:43:06.566Z,21.79
2019-03-28T00:44:06.596Z,21.80
2019-03-28T00:45:09.209Z,21.77
2019-03-28T00:46:06.606Z,21.80
2019-03-28T00:47:06.340Z,21.76
2019-03-28T00:48:06.594Z,21.80
2019-03-28T00:49:06.311Z,21.80
2019-03-28T00:50:06.570Z,21.79
2019-03-28T00:51:06.421Z,21.82
2019-03-28T00:52:06.700Z,21.80
2019-03-28T00:53:06.506Z,21.79
2019-03-28T00:54:06.929Z,21.80
2019-03-28T00:55:06.675Z,21.77
2019-03-28T00:56:06.227Z,21.79
2019-03-28T00:57:08.917Z,21.80
2019-03-28T00:58:07.155Z,21.79
2019-03-28T00:59:06.888Z,21.82
2019-03-28T01:00:06.537Z,21.75
2019-03-28T01:01:06.172Z,21.75
2019-03-28T01:02:07.868Z,21.79
2019-03-28T01:03:08.515Z,21.77
2019-03-28T01:04:06.384Z,21.79
2019-03-28T01:05:06.137Z,21.73
2019-03-28T01:06:07.386Z,21.76
2019-03-28T01:07:06.744Z,21.69
2019-03-28T01:08:07.866Z,21.77
2019-03-28T01:09:08.352Z,21.79
2019-03-28T01:10:06.747Z,21.69
2019-03-28T01:11:07.657Z,21.77
2019-03-28T01:12:06.439Z,21.75
2019-03-28T01:13:06.243Z,21.77
2019-03-28T01:14:06.184Z,21.76
2019-03-28T01:15:06.323Z,21.75
2019-03-28T01:16:07.300Z,21.77
2019-03-28T01:17:05.997Z,21.75
2019-03-28T01:18:06.230Z,21.67
2019-03-28T01:19:06.174Z,21.75
2019-03-28T01:20:06.974Z,21.83
2019-03-28T01:21:06.158Z,21.77
2019-03-28T01:22:06.248Z,21.79
2019-03-28T01:23:06.173Z,21.80
2019-03-28T01:24:05.913Z,21.76
2019-03-28T01:25:06.120Z,21.72
2019-03-28T01:26:06.178Z,21.72
2019-03-28T01:27:08.523Z,21.75
2019-03-28T01:28:05.961Z,21.76
2019-03-28T01:29:06.273Z,21.77
2019-03-28T01:30:06.078Z,21.64
2019-03-28T01:31:05.838Z,21.70
2019-03-28T01:32:06.015Z,21.79
2019-03-28T01:33:06.375Z,21.76
2019-03-28T01:34:05.808Z,21.75
2019-03-28T01:35:05.998Z,21.70
2019-03-28T01:36:06.069Z,21.72
2019-03-28T01:37:05.886Z,21.64
2019-03-28T01:38:06.033Z,21.85
2019-03-28T01:39:05.972Z,21.69
2019-03-28T01:40:06.092Z,21.77
2019-03-28T01:41:05.732Z,21.79
2019-03-28T01:42:06.165Z,21.66
2019-03-28T01:43:05.990Z,21.72
2019-03-28T01:44:05.840Z,21.76
2019-03-28T01:45:06.084Z,21.76
2019-03-28T01:46:05.732Z,21.75
2019-03-28T01:47:05.847Z,21.82
2019-03-28T01:48:06.131Z,21.66
2019-03-28T01:49:06.188Z,21.76
2019-03-28T01:50:05.664Z,21.62
2019-03-28T01:51:06.327Z,21.75
2019-03-28T01:52:05.608Z,21.66
2019-03-28T01:53:05.826Z,21.82
2019-03-28T01:54:05.592Z,21.75
2019-03-28T01:55:05.700Z,21.73
2019-03-28T01:56:07.542Z,21.76
2019-03-28T01:57:11.096Z,21.70
2019-03-28T01:58:05.542Z,21.76
2019-03-28T01:59:05.574Z,21.73
2019-03-28T02:00:05.522Z,21.62
2019-03-28T02:01:05.662Z,21.64
2019-03-28T02:02:05.506Z,21.69
2019-03-28T02:03:07.676Z,21.79
2019-03-28T02:04:05.473Z,21.64
2019-03-28T02:05:05.684Z,21.73
2019-03-28T02:06:07.326Z,21.61
2019-03-28T02:07:05.738Z,21.72
2019-03-28T02:08:06.966Z,21.77
2019-03-28T02:09:06.121Z,21.73
2019-03-28T02:10:05.584Z,21.73
2019-03-28T02:11:05.390Z,21.69
2019-03-28T02:12:05.754Z,21.64
2019-03-28T02:13:05.380Z,21.62
2019-03-28T02:14:05.700Z,21.83
2019-03-28T02:15:05.493Z,21.66
2019-03-28T02:16:05.375Z,21.72
2019-03-28T02:17:05.515Z,21.76
2019-03-28T02:18:07.558Z,21.70
2019-03-28T02:19:05.515Z,21.66
2019-03-28T02:20:06.109Z,21.67
2019-03-28T02:21:05.484Z,21.69
2019-03-28T02:22:05.907Z,21.77
2019-03-28T02:23:05.259Z,21.73
2019-03-28T02:24:05.457Z,21.69
2019-03-28T02:25:05.431Z,21.67
2019-03-28T02:26:05.227Z,21.76
2019-03-28T02:27:07.418Z,21.72
2019-03-28T02:28:05.230Z,21.77
2019-03-28T02:29:08.620Z,21.73
2019-03-28T02:30:05.865Z,21.67
2019-03-28T02:31:05.299Z,21.67
2019-03-28T02:32:05.458Z,21.62
2019-03-28T02:33:07.471Z,21.72
2019-03-28T02:34:05.379Z,21.75
2019-03-28T02:35:05.391Z,21.69
2019-03-28T02:36:05.361Z,21.70
2019-03-28T02:37:05.303Z,21.72
2019-03-28T02:38:05.111Z,21.72
2019-03-28T02:39:05.240Z,21.70
2019-03-28T02:40:05.568Z,21.76
2019-03-28T02:41:05.646Z,21.61
2019-03-28T02:42:05.066Z,21.75
2019-03-28T02:43:05.400Z,21.61
2019-03-28T02:44:05.280Z,21.70
2019-03-28T02:45:06.299Z,21.77
2019-03-28T02:46:05.008Z,21.72
2019-03-28T02:47:05.052Z,21.70
2019-03-28T02:48:05.354Z,21.72
2019-03-28T02:49:05.164Z,21.66
2019-03-28T02:50:05.660Z,21.72
2019-03-28T02:51:06.671Z,21.76
2019-03-28T02:52:04.965Z,21.72
2019-03-28T02:53:04.933Z,21.75
2019-03-28T02:54:05.586Z,21.70
2019-03-28T02:55:05.687Z,21.73
2019-03-28T02:56:05.178Z,21.66
2019-03-28T02:57:05.635Z,21.64
2019-03-28T02:58:05.213Z,21.77
2019-03-28T02:59:04.948Z,21.75
2019-03-28T03:00:05.266Z,21.66
2019-03-28T03:01:04.848Z,21.75
2019-03-28T03:02:06.699Z,21.75
2019-03-28T03:03:07.012Z,21.73
2019-03-28T03:04:04.991Z,21.76
2019-03-28T03:05:04.915Z,21.70
2019-03-28T03:06:05.238Z,21.70
2019-03-28T03:07:04.922Z,21.76
2019-03-28T03:08:05.022Z,21.77
2019-03-28T03:09:05.068Z,21.70
2019-03-28T03:10:04.735Z,21.64
2019-03-28T03:11:04.912Z,21.62
2019-03-28T03:12:04.738Z,21.76
2019-03-28T03:13:04.884Z,21.70
2019-03-28T03:14:04.701Z,21.73
2019-03-28T03:15:06.849Z,21.67
2019-03-28T03:16:04.822Z,21.75
2019-03-28T03:17:04.678Z,21.66
2019-03-28T03:18:05.646Z,21.67
2019-03-28T03:19:06.057Z,21.67
2019-03-28T03:20:04.877Z,21.67
2019-03-28T03:21:04.889Z,21.67
2019-03-28T03:22:05.425Z,21.72
2019-03-28T03:23:05.648Z,21.61
2019-03-28T03:24:05.007Z,21.67
2019-03-28T03:25:05.088Z,21.72
2019-03-28T03:26:04.596Z,21.77
2019-03-28T03:27:05.626Z,21.70
2019-03-28T03:28:04.553Z,21.60
2019-03-28T03:29:04.915Z,21.73
2019-03-28T03:30:05.081Z,21.73
2019-03-28T03:31:04.512Z,21.70
2019-03-28T03:32:04.791Z,21.69
2019-03-28T03:33:05.807Z,21.69
2019-03-28T03:34:05.327Z,21.66
2019-03-28T03:35:04.599Z,21.70
2019-03-28T03:36:04.865Z,21.72
2019-03-28T03:37:04.455Z,21.79
2019-03-28T03:38:04.594Z,21.70
2019-03-28T03:39:06.701Z,21.66
2019-03-28T03:40:05.841Z,21.75
2019-03-28T03:41:04.699Z,21.73
2019-03-28T03:42:04.395Z,21.70
2019-03-28T03:43:05.803Z,21.62
2019-03-28T03:44:04.412Z,21.62
2019-03-28T03:45:05.187Z,21.69
2019-03-28T03:46:04.350Z,21.67
2019-03-28T03:47:04.501Z,21.72
2019-03-28T03:48:04.916Z,21.67
2019-03-28T03:49:04.864Z,21.69
2019-03-28T03:50:05.746Z,21.58
2019-03-28T03:51:05.139Z,21.58
2019-03-28T03:52:04.283Z,21.66
2019-03-28T03:53:04.650Z,21.72
2019-03-28T03:54:04.422Z,21.70
2019-03-28T03:55:04.358Z,21.73
2019-03-28T03:56:04.238Z,21.69
2019-03-28T03:57:06.739Z,21.67
2019-03-28T03:58:15.458Z,21.64
2019-03-28T03:59:05.430Z,21.66
2019-03-28T04:00:04.353Z,21.67
2019-03-28T04:01:04.183Z,21.69
2019-03-28T04:02:04.169Z,21.57
2019-03-28T04:03:04.374Z,21.62
2019-03-28T04:04:04.339Z,21.58
2019-03-28T04:05:04.333Z,21.67
2019-03-28T04:06:04.136Z,21.66
2019-03-28T04:07:05.222Z,21.60
2019-03-28T04:08:04.111Z,21.75
2019-03-28T04:09:05.236Z,21.62
2019-03-28T04:10:04.210Z,21.70
2019-03-28T04:11:04.291Z,21.67
2019-03-28T04:12:04.066Z,21.69
2019-03-28T04:13:04.536Z,21.69
2019-03-28T04:14:04.283Z,21.62
2019-03-28T04:15:04.080Z,21.69
2019-03-28T04:16:04.252Z,21.66
2019-03-28T04:17:04.005Z,21.70
2019-03-28T04:18:03.994Z,21.61
2019-03-28T04:19:03.976Z,21.64
2019-03-28T04:20:08.208Z,21.70
2019-03-28T04:21:04.223Z,21.69
2019-03-28T04:22:03.986Z,21.70
2019-03-28T04:23:04.363Z,21.61
2019-03-28T04:24:03.926Z,21.70
2019-03-28T04:25:04.103Z,21.67
2019-03-28T04:26:07.572Z,21.60
2019-03-28T04:27:03.893Z,21.62
2019-03-28T04:28:04.105Z,21.67
2019-03-28T04:29:04.771Z,21.64
2019-03-28T04:30:04.101Z,21.75
2019-03-28T04:31:04.128Z,21.67
2019-03-28T04:32:04.768Z,21.67
2019-03-28T04:33:03.853Z,21.67
2019-03-28T04:34:07.719Z,21.69
2019-03-28T04:35:03.983Z,21.69
2019-03-28T04:36:03.842Z,21.67
2019-03-28T04:37:04.034Z,21.58
2019-03-28T04:38:04.818Z,21.66
2019-03-28T04:39:04.004Z,21.58
2019-03-28T04:40:03.909Z,21.67
2019-03-28T04:41:04.101Z,21.69
2019-03-28T04:42:03.739Z,21.66
2019-03-28T04:43:05.671Z,21.58
2019-03-28T04:44:03.947Z,21.69
2019-03-28T04:45:05.474Z,21.70
2019-03-28T04:46:03.677Z,21.66
2019-03-28T04:47:03.707Z,21.62
2019-03-28T04:48:03.747Z,21.69
2019-03-28T04:49:05.656Z,21.62
2019-03-28T04:50:06.091Z,21.70
2019-03-28T04:51:03.784Z,21.69
2019-03-28T04:52:03.622Z,21.64
2019-03-28T04:53:03.608Z,21.61
2019-03-28T04:54:04.908Z,21.67
2019-03-28T04:55:03.909Z,21.60
2019-03-28T04:56:03.566Z,21.70
2019-03-28T04:57:04.306Z,21.62
2019-03-28T04:58:03.542Z,21.69
2019-03-28T04:59:03.570Z,21.70
2019-03-28T05:00:04.810Z,21.66
2019-03-28T05:01:03.839Z,21.62
2019-03-28T05:02:05.024Z,21.72
2019-03-28T05:03:03.688Z,21.72
2019-03-28T05:04:04.863Z,21.55
2019-03-28T05:05:04.055Z,21.69
2019-03-28T05:06:05.044Z,21.67
2019-03-28T05:07:03.619Z,21.67
2019-03-28T05:08:03.436Z,21.67
2019-03-28T05:09:03.586Z,21.70
2019-03-28T05:10:03.826Z,21.69
2019-03-28T05:11:03.934Z,21.67
2019-03-28T05:12:03.397Z,21.67
2019-03-28T05:13:04.209Z,21.67
2019-03-28T05:14:03.366Z,21.73
2019-03-28T05:15:03.661Z,21.62
2019-03-28T05:16:03.539Z,21.60
2019-03-28T05:17:03.345Z,21.60
2019-03-28T05:18:03.970Z,21.67
2019-03-28T05:19:05.092Z,21.66
2019-03-28T05:20:04.660Z,21.66
2019-03-28T05:21:03.310Z,21.70
2019-03-28T05:22:03.565Z,21.66
2019-03-28T05:23:03.275Z,21.69
2019-03-28T05:24:03.671Z,21.69
2019-03-28T05:25:05.458Z,21.70
2019-03-28T05:26:03.559Z,21.61
2019-03-28T05:27:03.376Z,21.69
2019-03-28T05:28:03.400Z,21.66
2019-03-28T05:29:03.232Z,21.67
2019-03-28T05:30:06.476Z,21.62
2019-03-28T05:31:03.414Z,21.69
2019-03-28T05:32:03.743Z,21.62
2019-03-28T05:33:03.712Z,21.64
2019-03-28T05:34:04.731Z,21.64
2019-03-28T05:35:06.258Z,21.67
2019-03-28T05:36:04.535Z,21.62
2019-03-28T05:37:03.356Z,21.69
2019-03-28T05:38:03.718Z,21.64
2019-03-28T05:39:03.749Z,21.73
2019-03-28T05:40:03.589Z,21.72
2019-03-28T05:41:03.821Z,21.62
2019-03-28T05:42:03.817Z,21.69
2019-03-28T05:43:03.242Z,21.77
2019-03-28T05:44:03.249Z,21.67
2019-03-28T05:45:03.056Z,21.66
2019-03-28T05:46:05.642Z,21.72
2019-03-28T05:47:03.510Z,21.72
2019-03-28T05:48:03.011Z,21.69
2019-03-28T05:49:04.194Z,21.73
2019-03-28T05:50:04.820Z,21.67
2019-03-28T05:51:02.971Z,21.69
2019-03-28T05:52:02.962Z,21.67
2019-03-28T05:53:04.045Z,21.75
2019-03-28T05:54:03.160Z,21.75
2019-03-28T05:55:05.380Z,21.61
2019-03-28T05:56:03.064Z,21.72
2019-03-28T05:57:02.903Z,21.67
2019-03-28T05:58:02.878Z,21.67
2019-03-28T05:59:10.850Z,21.77
2019-03-28T06:00:07.166Z,21.66
2019-03-28T06:01:03.046Z,21.67
2019-03-28T06:02:03.508Z,21.75
2019-03-28T06:03:03.264Z,21.67
2019-03-28T06:04:02.812Z,21.62
2019-03-28T06:05:04.226Z,21.62
2019-03-28T06:06:06.197Z,21.62
2019-03-28T06:07:03.340Z,21.66
2019-03-28T06:08:02.779Z,21.69
2019-03-28T06:09:03.023Z,21.62
2019-03-28T06:10:02.940Z,21.66
2019-03-28T06:11:03.014Z,21.64
2019-03-28T06:12:03.017Z,21.66
2019-03-28T06:13:05.994Z,21.73
2019-03-28T06:14:03.254Z,21.69
2019-03-28T06:15:02.688Z,21.67
2019-03-28T06:16:02.973Z,21.75
2019-03-28T06:17:03.093Z,21.67
2019-03-28T06:18:03.238Z,21.66
2019-03-28T06:19:03.940Z,21.76
2019-03-28T06:20:04.238Z,21.62
2019-03-28T06:21:02.680Z,21.73
2019-03-28T06:22:02.782Z,21.75
2019-03-28T06:23:04.386Z,21.66
2019-03-28T06:24:02.958Z,21.70
2019-03-28T06:25:05.745Z,21.79
2019-03-28T06:26:03.517Z,21.70
2019-03-28T06:27:02.603Z,21.66
2019-03-28T06:28:03.271Z,21.76
2019-03-28T06:29:02.579Z,21.72
2019-03-28T06:30:03.305Z,21.76
2019-03-28T06:31:04.213Z,21.72
2019-03-28T06:32:02.774Z,21.67
2019-03-28T06:33:02.592Z,21.69
2019-03-28T06:34:02.743Z,21.79
2019-03-28T06:35:04.368Z,21.62
2019-03-28T06:36:02.777Z,21.66
2019-03-28T06:37:02.477Z,21.66
2019-03-28T06:38:02.634Z,21.69
2019-03-28T06:39:02.431Z,21.77
2019-03-28T06:40:02.687Z,21.82
2019-03-28T06:41:02.849Z,21.76
2019-03-28T06:42:02.547Z,21.73
2019-03-28T06:43:02.412Z,21.79
2019-03-28T06:44:02.374Z,21.73
2019-03-28T06:45:04.103Z,21.76
2019-03-28T06:46:02.346Z,21.79
2019-03-28T06:47:02.758Z,21.80
2019-03-28T06:48:02.499Z,21.82
2019-03-28T06:49:02.570Z,21.76
2019-03-28T06:50:02.322Z,21.75
2019-03-28T06:51:02.546Z,21.73
2019-03-28T06:52:04.195Z,21.83
2019-03-28T06:53:02.512Z,21.80
2019-03-28T06:54:02.474Z,21.77
2019-03-28T06:55:02.458Z,21.75
2019-03-28T06:56:02.232Z,21.73
2019-03-28T06:57:04.393Z,21.76
2019-03-28T06:58:03.266Z,21.72
2019-03-28T06:59:02.558Z,21.80
2019-03-28T07:00:04.321Z,21.75
2019-03-28T07:01:02.262Z,21.75
2019-03-28T07:02:03.726Z,21.79
2019-03-28T07:03:03.235Z,21.73
2019-03-28T07:04:02.643Z,21.80
2019-03-28T07:05:04.242Z,21.72
2019-03-28T07:06:02.629Z,21.76
2019-03-28T07:07:02.136Z,21.82
2019-03-28T07:08:02.107Z,21.76
2019-03-28T07:09:02.093Z,21.75
2019-03-28T07:10:03.331Z,21.73
2019-03-28T07:11:02.594Z,21.79
2019-03-28T07:12:02.328Z,21.79
2019-03-28T07:13:02.213Z,21.75
2019-03-28T07:14:02.432Z,21.73
2019-03-28T07:15:02.806Z,21.69
2019-03-28T07:16:02.038Z,21.77
2019-03-28T07:17:02.004Z,21.80
2019-03-28T07:18:06.111Z,21.73
2019-03-28T07:19:02.151Z,21.76
2019-03-28T07:20:02.245Z,21.80
2019-03-28T07:21:01.956Z,21.75
2019-03-28T07:22:02.167Z,21.75
2019-03-28T07:23:01.946Z,21.77
2019-03-28T07:24:02.735Z,21.76
2019-03-28T07:25:02.094Z,21.83
2019-03-28T07:26:01.903Z,21.73
2019-03-28T07:27:03.535Z,21.80
2019-03-28T07:28:02.414Z,21.76
2019-03-28T07:29:01.914Z,21.76
2019-03-28T07:30:02.549Z,21.79
2019-03-28T07:31:02.095Z,21.79
2019-03-28T07:32:04.190Z,21.76
2019-03-28T07:33:02.178Z,21.80
2019-03-28T07:34:02.052Z,21.76
2019-03-28T07:35:02.113Z,21.80
2019-03-28T07:36:02.087Z,21.79
2019-03-28T07:37:02.568Z,21.80
2019-03-28T07:38:02.025Z,21.79
2019-03-28T07:39:01.952Z,21.73
2019-03-28T07:40:02.139Z,21.76
2019-03-28T07:41:01.737Z,21.80
2019-03-28T07:42:02.269Z,21.77
2019-03-28T07:43:01.855Z,21.79
2019-03-28T07:44:01.699Z,21.76
2019-03-28T07:45:02.943Z,21.75
2019-03-28T07:46:01.680Z,21.77
2019-03-28T07:47:04.963Z,21.80
2019-03-28T07:48:02.146Z,21.89
2019-03-28T07:49:01.655Z,21.77
2019-03-28T07:50:01.791Z,21.80
2019-03-28T07:51:01.629Z,21.82
2019-03-28T07:52:01.763Z,21.82
2019-03-28T07:53:01.599Z,21.83
2019-03-28T07:54:01.914Z,21.77
2019-03-28T07:55:01.807Z,21.83
2019-03-28T07:56:02.470Z,21.85
2019-03-28T07:57:03.371Z,21.77
2019-03-28T07:58:01.804Z,21.83
2019-03-28T07:59:01.736Z,21.82
2019-03-28T08:00:04.753Z,21.85
2019-03-28T08:01:01.956Z,21.80
2019-03-28T08:02:01.597Z,21.83
2019-03-28T08:03:02.731Z,21.79
2019-03-28T08:04:01.477Z,21.77
2019-03-28T08:05:02.269Z,21.85
2019-03-28T08:06:03.200Z,21.80
2019-03-28T08:07:01.461Z,21.83
2019-03-28T08:08:02.064Z,21.83
2019-03-28T08:09:02.563Z,21.79
2019-03-28T08:10:01.680Z,21.77
2019-03-28T08:11:01.406Z,21.83
2019-03-28T08:12:04.770Z,21.77
2019-03-28T08:13:01.401Z,21.91
2019-03-28T08:14:01.508Z,21.85
2019-03-28T08:15:03.516Z,21.89
2019-03-28T08:16:01.439Z,21.77
2019-03-28T08:17:01.350Z,21.85
2019-03-28T08:18:01.593Z,21.85
2019-03-28T08:19:01.517Z,21.89
2019-03-28T08:20:05.699Z,21.80
2019-03-28T08:21:01.775Z,21.80
2019-03-28T08:22:01.319Z,21.82
2019-03-28T08:23:01.747Z,21.80
2019-03-28T08:24:01.973Z,21.82
2019-03-28T08:25:01.302Z,21.98
2019-03-28T08:26:01.444Z,21.91
2019-03-28T08:27:01.412Z,21.89
2019-03-28T08:28:01.239Z,21.83
2019-03-28T08:29:01.450Z,21.80
2019-03-28T08:30:17.659Z,21.85
2019-03-28T08:31:02.371Z,21.82
2019-03-28T08:32:03.004Z,21.80
2019-03-28T08:33:01.387Z,21.85
2019-03-28T08:34:02.045Z,21.82
2019-03-28T08:35:01.404Z,21.92
2019-03-28T08:36:01.509Z,21.82
2019-03-28T08:37:01.629Z,21.88
2019-03-28T08:38:01.148Z,21.83
2019-03-28T08:39:01.104Z,21.76
2019-03-28T08:40:01.274Z,21.79
2019-03-28T08:41:01.079Z,21.80
2019-03-28T08:42:02.337Z,21.82
2019-03-28T08:43:01.048Z,21.77
2019-03-28T08:44:01.236Z,21.76
2019-03-28T08:45:01.031Z,21.82
2019-03-28T08:46:01.020Z,21.88
2019-03-28T08:47:01.331Z,21.83
2019-03-28T08:48:01.291Z,21.88
2019-03-28T08:49:02.613Z,21.82
2019-03-28T08:50:01.236Z,21.89
2019-03-28T08:51:01.053Z,21.83
2019-03-28T08:52:01.300Z,21.79
2019-03-28T08:53:00.943Z,21.85
2019-03-28T08:54:03.612Z,21.77
2019-03-28T08:55:01.927Z,21.82
2019-03-28T08:56:02.673Z,21.80
2019-03-28T08:57:01.078Z,21.79
2019-03-28T08:58:01.127Z,21.82
2019-03-28T08:59:00.883Z,21.93
2019-03-28T09:00:01.495Z,21.93
2019-03-28T09:02:30.096Z,21.77
2019-03-28T09:03:11.355Z,21.85
2019-03-28T09:04:09.230Z,21.89
2019-03-28T09:05:11.493Z,21.85
2019-03-28T09:06:09.045Z,21.85
2019-03-28T09:07:09.678Z,21.88
2019-03-28T09:08:09.016Z,21.92
2019-03-28T09:09:09.251Z,21.83
2019-03-28T09:10:08.996Z,21.91
2019-03-28T09:11:10.900Z,21.91
2019-03-28T09:12:09.557Z,21.89
2019-03-28T09:13:09.084Z,21.82
2019-03-28T09:14:11.254Z,21.80
2019-03-28T09:15:09.339Z,21.85
2019-03-28T09:16:09.113Z,21.89
2019-03-28T09:17:09.150Z,21.89
2019-03-28T09:18:08.961Z,21.85
2019-03-28T09:19:08.893Z,21.91
2019-03-28T09:20:08.902Z,21.80
2019-03-28T09:21:08.910Z,21.85
2019-03-28T09:22:09.312Z,21.80
2019-03-28T09:23:12.998Z,21.89
2019-03-28T09:24:09.468Z,21.83
2019-03-28T09:25:08.841Z,21.89
2019-03-28T09:26:09.143Z,21.80
2019-03-28T09:27:09.801Z,21.88
2019-03-28T09:28:08.943Z,21.88
2019-03-28T09:29:11.057Z,21.80
2019-03-28T09:30:10.159Z,21.88
2019-03-28T09:31:19.152Z,21.83
2019-03-28T09:32:09.788Z,21.83
2019-03-28T09:33:08.734Z,21.85
2019-03-28T09:34:09.093Z,21.88
2019-03-28T09:35:12.289Z,21.85
2019-03-28T09:36:08.701Z,21.85
2019-03-28T09:37:08.688Z,21.77
2019-03-28T09:38:08.994Z,21.85
2019-03-28T09:39:09.760Z,21.79
2019-03-28T09:40:11.017Z,21.85
2019-03-28T09:41:09.386Z,21.92
2019-03-28T09:42:08.882Z,21.79
2019-03-28T09:43:09.761Z,21.82
2019-03-28T09:44:08.622Z,21.88
2019-03-28T09:45:08.937Z,21.79
2019-03-28T09:46:08.605Z,21.85
2019-03-28T09:47:44.664Z,21.83
2019-03-28T09:48:11.421Z,21.80
2019-03-28T09:49:08.973Z,21.89
2019-03-28T09:50:09.290Z,21.82
2019-03-28T09:51:08.754Z,21.80
2019-03-28T09:52:08.750Z,21.95
2019-03-28T09:53:09.293Z,21.76
2019-03-28T09:54:09.071Z,21.88
2019-03-28T09:55:09.164Z,21.83
2019-03-28T09:56:08.583Z,21.80
2019-03-28T09:57:08.573Z,21.77
2019-03-28T09:58:08.658Z,21.89
2019-03-28T09:59:10.905Z,21.92
2019-03-28T10:00:08.431Z,21.91
2019-03-28T10:01:09.377Z,21.83
2019-03-28T10:02:08.771Z,21.85
2019-03-28T10:03:08.413Z,21.83
2019-03-28T10:04:08.381Z,21.80
2019-03-28T10:05:12.288Z,21.80
2019-03-28T10:06:08.746Z,21.91
2019-03-28T10:07:09.989Z,21.85
2019-03-28T10:08:08.525Z,21.83
2019-03-28T10:09:08.331Z,21.82
2019-03-28T10:10:09.322Z,21.85
2019-03-28T10:11:09.913Z,21.83
2019-03-28T10:12:08.294Z,21.79
2019-03-28T10:13:08.346Z,21.89
2019-03-28T10:14:09.534Z,21.83
2019-03-28T10:15:08.545Z,21.80
2019-03-28T10:16:08.253Z,21.79
2019-03-28T10:17:11.696Z,21.80
2019-03-28T10:18:08.634Z,21.82
2019-03-28T10:19:08.856Z,21.91
2019-03-28T10:20:11.186Z,21.85
2019-03-28T10:21:10.265Z,21.82
2019-03-28T10:22:09.184Z,21.80
2019-03-28T10:23:08.435Z,21.79
2019-03-28T10:24:08.396Z,21.85
2019-03-28T10:25:08.149Z,21.88
2019-03-28T10:26:08.138Z,21.82
2019-03-28T10:27:09.676Z,21.85
2019-03-28T10:28:08.338Z,21.82
2019-03-28T10:29:08.303Z,21.85
2019-03-28T10:30:08.542Z,21.83
2019-03-28T10:31:16.377Z,21.77
2019-03-28T10:32:09.085Z,21.80
2019-03-28T10:33:08.305Z,21.88
2019-03-28T10:34:08.049Z,21.91
2019-03-28T10:35:09.119Z,21.79
2019-03-28T10:36:08.047Z,21.95
2019-03-28T10:37:08.140Z,21.82
2019-03-28T10:38:08.243Z,21.91
2019-03-28T10:39:08.086Z,21.92
2019-03-28T10:40:08.784Z,21.85
2019-03-28T10:41:08.384Z,21.92
2019-03-28T10:42:07.970Z,21.82
2019-03-28T10:43:08.303Z,21.83
2019-03-28T10:44:08.126Z,21.92
2019-03-28T10:45:07.937Z,21.85
2019-03-28T10:46:08.387Z,21.89
2019-03-28T10:47:08.160Z,21.91
2019-03-28T10:48:08.936Z,21.79
2019-03-28T10:49:08.042Z,21.95
2019-03-28T10:50:07.872Z,21.95
2019-03-28T10:51:08.110Z,21.95
2019-03-28T10:52:08.089Z,21.79
2019-03-28T10:53:08.007Z,21.93
2019-03-28T10:54:19.347Z,21.80
2019-03-28T10:55:10.084Z,21.80
2019-03-28T10:56:21.000Z,21.91
2019-03-28T10:57:15.492Z,21.83
2019-03-28T10:58:18.716Z,21.89
2019-03-28T10:59:22.360Z,21.83
2019-03-28T11:00:09.057Z,21.89
2019-03-28T11:01:07.960Z,21.89
2019-03-28T11:02:07.991Z,21.80
2019-03-28T11:03:09.629Z,21.80
2019-03-28T11:04:08.009Z,21.79
2019-03-28T11:05:07.704Z,21.79
2019-03-28T11:06:08.610Z,21.80
2019-03-28T11:07:07.676Z,21.88
2019-03-28T11:08:07.933Z,21.89
2019-03-28T11:09:08.487Z,21.79
2019-03-28T11:10:07.958Z,21.83
2019-03-28T11:11:08.105Z,21.82
2019-03-28T11:12:08.010Z,21.93
2019-03-28T11:13:09.552Z,21.92
2019-03-28T11:14:08.406Z,21.93
2019-03-28T11:15:07.635Z,21.91
2019-03-28T11:16:07.649Z,21.92
2019-03-28T11:17:07.566Z,21.98
2019-03-28T11:18:07.557Z,21.96
2019-03-28T11:19:07.555Z,21.95
2019-03-28T11:20:08.279Z,21.96
2019-03-28T11:21:07.519Z,21.98
2019-03-28T11:22:07.528Z,22.00
2019-03-28T11:23:07.693Z,21.98
2019-03-28T11:24:07.488Z,22.02
2019-03-28T11:25:07.475Z,21.99
2019-03-28T11:26:07.469Z,22.00
2019-03-28T11:27:07.453Z,21.99
2019-03-28T11:28:07.486Z,22.00
2019-03-28T11:29:07.848Z,22.11
2019-03-28T11:30:07.416Z,22.13
2019-03-28T11:31:07.407Z,22.04
2019-03-28T11:32:07.575Z,22.11
2019-03-28T11:33:07.397Z,22.15
2019-03-28T11:34:07.550Z,22.06
2019-03-28T11:35:07.870Z,22.15
2019-03-28T11:36:07.546Z,22.14
2019-03-28T11:37:11.311Z,22.14
2019-03-28T11:38:09.752Z,22.07
2019-03-28T11:39:07.537Z,22.11
2019-03-28T11:40:09.122Z,22.08
2019-03-28T11:41:07.612Z,22.15
2019-03-28T11:42:07.282Z,22.11
2019-03-28T11:43:07.274Z,22.13
2019-03-28T11:44:07.560Z,22.15
2019-03-28T11:45:09.330Z,22.18
2019-03-28T11:46:08.302Z,22.15
2019-03-28T11:47:07.396Z,22.15
2019-03-28T11:48:07.858Z,22.11
2019-03-28T11:49:07.209Z,22.18
2019-03-28T11:50:09.278Z,22.08
2019-03-28T11:51:07.470Z,22.22
2019-03-28T11:52:09.109Z,22.15
2019-03-28T11:53:07.165Z,22.13
2019-03-28T11:54:07.358Z,22.22
2019-03-28T11:55:07.138Z,22.13
2019-03-28T11:56:07.127Z,22.11
2019-03-28T11:57:07.116Z,22.14
2019-03-28T11:58:07.541Z,22.15
2019-03-28T11:59:07.167Z,22.20
2019-03-28T12:00:09.777Z,22.15
2019-03-28T12:01:07.290Z,22.14
2019-03-28T12:02:19.307Z,22.11
2019-03-28T12:03:08.602Z,22.10
2019-03-28T12:04:07.552Z,22.13
2019-03-28T12:05:07.020Z,22.13
2019-03-28T12:06:07.011Z,22.18
2019-03-28T12:07:07.264Z,22.10
2019-03-28T12:08:07.189Z,22.18
2019-03-28T12:09:06.984Z,22.11
2019-03-28T12:10:07.304Z,22.15
2019-03-28T12:11:08.824Z,22.18
2019-03-28T12:12:06.945Z,22.11
2019-03-28T12:13:07.638Z,22.23
2019-03-28T12:14:07.065Z,22.18
2019-03-28T12:15:07.099Z,22.11
2019-03-28T12:16:07.107Z,22.15
2019-03-28T12:17:09.211Z,22.22
2019-03-28T12:18:06.884Z,22.25
2019-03-28T12:19:09.333Z,22.22
2019-03-28T12:20:07.228Z,22.11
2019-03-28T12:21:07.197Z,22.23
2019-03-28T12:22:07.680Z,22.17
2019-03-28T12:23:06.944Z,22.23
2019-03-28T12:24:10.570Z,22.26
2019-03-28T12:25:06.803Z,22.17
2019-03-28T12:26:08.194Z,22.20
2019-03-28T12:27:06.784Z,22.23
2019-03-28T12:28:08.529Z,22.18
2019-03-28T12:29:06.751Z,22.18
2019-03-28T12:30:07.875Z,22.25
2019-03-28T12:31:08.319Z,22.14
2019-03-28T12:32:13.909Z,22.26
2019-03-28T12:33:07.719Z,22.14
2019-03-28T12:34:06.929Z,22.20
2019-03-28T12:35:08.194Z,22.26
2019-03-28T12:36:06.675Z,22.26
2019-03-28T12:37:06.667Z,22.22
2019-03-28T12:38:08.331Z,22.28
2019-03-28T12:39:06.789Z,22.26
2019-03-28T12:40:07.977Z,22.23
2019-03-28T12:41:06.719Z,22.14
2019-03-28T12:42:06.764Z,22.26
2019-03-28T12:43:06.599Z,22.26
2019-03-28T12:44:06.782Z,22.23
2019-03-28T12:45:06.620Z,22.13
2019-03-28T12:46:08.900Z,22.18
2019-03-28T12:47:06.663Z,22.25
2019-03-28T12:48:08.452Z,22.26
2019-03-28T12:49:06.532Z,22.26
2019-03-28T12:50:06.578Z,22.26
2019-03-28T12:51:06.857Z,22.23
2019-03-28T12:52:08.689Z,22.29
2019-03-28T12:53:06.617Z,22.18